N3898R KMLB-KORL
Flight info
| Callsign | N3898R |
|---|---|
| Flight time | N/A |
| Altitude | 4000 |
| Route | 281134N0804422W 281654N0805001W 282320N0805650W LAPUU 283222N0810853W |
| Aircraft | C172/L-SDE3/L |
Departure
| Time | 2026-05-04 23:06 |
|---|---|
| Airport | Melbourne Orlando International Airport (KMLB) |
Arrival
| Time | N/A |
|---|---|
| Airport | Orlando Executive Airport (KORL) |
| Time | Latitude | Longitude | Altitude | Speed | Heading |
|---|---|---|---|---|---|
| 2026-05-04 22:51 | 28.10745 | -80.65348 | 30 ft | 0 kts | 356° |
| 2026-05-04 22:52 | 28.10768 | -80.65289 | 30 ft | 0 kts | 115° |
| 2026-05-04 22:56 | 28.10736 | -80.65283 | 30 ft | 11 kts | 178° |
| 2026-05-04 22:56 | 28.10699 | -80.65282 | 30 ft | 0 kts | 178° |
| 2026-05-04 23:01 | 28.10698 | -80.65282 | 30 ft | 0 kts | 177° |
| 2026-05-04 23:02 | 28.10696 | -80.65282 | 30 ft | 3 kts | 176° |
| 2026-05-04 23:02 | 28.10664 | -80.65309 | 30 ft | 13 kts | 262° |
| 2026-05-04 23:02 | 28.10660 | -80.65391 | 30 ft | 23 kts | 266° |
| 2026-05-04 23:02 | 28.10649 | -80.65607 | 30 ft | 31 kts | 266° |
| 2026-05-04 23:03 | 28.10641 | -80.65784 | 29 ft | 29 kts | 265° |
| 2026-05-04 23:03 | 28.10633 | -80.65958 | 27 ft | 19 kts | 266° |
| 2026-05-04 23:03 | 28.10612 | -80.65984 | 27 ft | 0 kts | 179° |
| 2026-05-04 23:04 | 28.10554 | -80.65971 | 27 ft | 21 kts | 135° |
| 2026-05-04 23:04 | 28.10550 | -80.65797 | 27 ft | 45 kts | 87° |
| 2026-05-04 23:05 | 28.10560 | -80.65491 | 70 ft | 64 kts | 82° |
| 2026-05-04 23:05 | 28.10568 | -80.65057 | 213 ft | 68 kts | 82° |
| 2026-05-04 23:05 | 28.10579 | -80.64605 | 377 ft | 69 kts | 82° |
| 2026-05-04 23:05 | 28.10617 | -80.64196 | 552 ft | 65 kts | 65° |
| 2026-05-04 23:06 | 28.10729 | -80.64027 | 629 ft | 66 kts | 38° |
| 2026-05-04 23:06 | 28.11104 | -80.63969 | 784 ft | 71 kts | 3° |
| 2026-05-04 23:06 | 28.11514 | -80.64026 | 895 ft | 77 kts | 359° |
| 2026-05-04 23:06 | 28.11895 | -80.64183 | 1038 ft | 84 kts | 323° |
| 2026-05-04 23:07 | 28.12068 | -80.64695 | 1081 ft | 96 kts | 290° |
| 2026-05-04 23:07 | 28.12169 | -80.65256 | 1193 ft | 98 kts | 291° |
| 2026-05-04 23:07 | 28.12351 | -80.65962 | 1325 ft | 101 kts | 292° |
| 2026-05-04 23:07 | 28.12497 | -80.66637 | 1491 ft | 100 kts | 289° |
| 2026-05-04 23:08 | 28.12634 | -80.67310 | 1613 ft | 100 kts | 294° |
| 2026-05-04 23:08 | 28.12872 | -80.67910 | 1891 ft | 86 kts | 306° |
| 2026-05-04 23:08 | 28.13126 | -80.68465 | 2036 ft | 86 kts | 311° |
| 2026-05-04 23:08 | 28.13438 | -80.68884 | 2158 ft | 88 kts | 320° |
| 2026-05-04 23:09 | 28.13848 | -80.69367 | 2162 ft | 95 kts | 322° |
| 2026-05-04 23:09 | 28.14265 | -80.69844 | 2187 ft | 97 kts | 322° |
| 2026-05-04 23:09 | 28.14676 | -80.70310 | 2211 ft | 99 kts | 322° |
| 2026-05-04 23:09 | 28.14943 | -80.70612 | 2226 ft | 99 kts | 322° |
| 2026-05-04 23:10 | 28.15157 | -80.70854 | 2238 ft | 100 kts | 322° |
| 2026-05-04 23:10 | 28.15658 | -80.71416 | 2265 ft | 101 kts | 322° |
| 2026-05-04 23:10 | 28.16187 | -80.72011 | 2293 ft | 101 kts | 322° |
| 2026-05-04 23:10 | 28.16699 | -80.72584 | 2319 ft | 102 kts | 322° |
| 2026-05-04 23:11 | 28.17240 | -80.73187 | 2331 ft | 103 kts | 322° |
| 2026-05-04 23:11 | 28.17617 | -80.73606 | 2330 ft | 104 kts | 322° |
| 2026-05-04 23:11 | 28.18238 | -80.74294 | 2330 ft | 105 kts | 322° |
| 2026-05-04 23:11 | 28.18634 | -80.74730 | 2330 ft | 106 kts | 322° |
| 2026-05-04 23:12 | 28.19100 | -80.75243 | 2330 ft | 106 kts | 322° |
| 2026-05-04 23:12 | 28.19672 | -80.75871 | 2330 ft | 107 kts | 322° |
| 2026-05-04 23:12 | 28.20306 | -80.76563 | 2331 ft | 108 kts | 322° |
| 2026-05-04 23:12 | 28.20663 | -80.76952 | 2331 ft | 108 kts | 322° |
| 2026-05-04 23:13 | 28.21020 | -80.77342 | 2331 ft | 109 kts | 322° |
| 2026-05-04 23:13 | 28.21441 | -80.77799 | 2332 ft | 109 kts | 322° |
| 2026-05-04 23:13 | 28.22072 | -80.78484 | 2332 ft | 109 kts | 322° |
| 2026-05-04 23:13 | 28.22764 | -80.79234 | 2333 ft | 109 kts | 322° |
| 2026-05-04 23:14 | 28.23437 | -80.79961 | 2334 ft | 109 kts | 322° |
| 2026-05-04 23:14 | 28.24157 | -80.80737 | 2335 ft | 110 kts | 322° |
| 2026-05-04 23:14 | 28.24891 | -80.81525 | 2337 ft | 110 kts | 322° |
| 2026-05-04 23:14 | 28.25587 | -80.82271 | 2338 ft | 110 kts | 322° |
| 2026-05-04 23:15 | 28.26104 | -80.82825 | 2339 ft | 110 kts | 322° |
| 2026-05-04 23:15 | 28.26576 | -80.83327 | 2340 ft | 110 kts | 322° |
| 2026-05-04 23:15 | 28.27041 | -80.83813 | 2340 ft | 110 kts | 322° |
| 2026-05-04 23:15 | 28.27548 | -80.84341 | 2342 ft | 110 kts | 322° |
| 2026-05-04 23:16 | 28.28067 | -80.84882 | 2343 ft | 110 kts | 322° |
| 2026-05-04 23:16 | 28.28552 | -80.85387 | 2344 ft | 110 kts | 322° |
| 2026-05-04 23:16 | 28.29068 | -80.85925 | 2346 ft | 110 kts | 322° |
| 2026-05-04 23:16 | 28.29554 | -80.86443 | 2347 ft | 111 kts | 318° |
| 2026-05-04 23:17 | 28.30018 | -80.87028 | 2349 ft | 111 kts | 316° |
| 2026-05-04 23:17 | 28.30386 | -80.87500 | 2350 ft | 111 kts | 316° |
| 2026-05-04 23:17 | 28.30847 | -80.88092 | 2352 ft | 111 kts | 316° |
| 2026-05-04 23:17 | 28.31341 | -80.88728 | 2353 ft | 111 kts | 316° |
| 2026-05-04 23:18 | 28.31830 | -80.89357 | 2354 ft | 111 kts | 316° |
| 2026-05-04 23:18 | 28.32319 | -80.89989 | 2354 ft | 111 kts | 316° |
| 2026-05-04 23:18 | 28.32816 | -80.90632 | 2354 ft | 111 kts | 316° |
| 2026-05-04 23:18 | 28.33309 | -80.91271 | 2354 ft | 111 kts | 316° |
| 2026-05-04 23:19 | 28.33772 | -80.91874 | 2354 ft | 111 kts | 316° |
| 2026-05-04 23:19 | 28.34250 | -80.92497 | 2354 ft | 112 kts | 316° |
| 2026-05-04 23:19 | 28.34724 | -80.93117 | 2353 ft | 112 kts | 316° |
| 2026-05-04 23:19 | 28.35186 | -80.93710 | 2353 ft | 112 kts | 317° |
| 2026-05-04 23:20 | 28.35664 | -80.94316 | 2353 ft | 112 kts | 317° |
| 2026-05-04 23:20 | 28.36149 | -80.94931 | 2353 ft | 112 kts | 317° |
| 2026-05-04 23:20 | 28.36639 | -80.95555 | 2352 ft | 112 kts | 317° |
| 2026-05-04 23:20 | 28.37114 | -80.96165 | 2352 ft | 112 kts | 317° |
| 2026-05-04 23:21 | 28.37605 | -80.96793 | 2352 ft | 112 kts | 318° |
| 2026-05-04 23:21 | 28.38109 | -80.97440 | 2352 ft | 112 kts | 317° |
| 2026-05-04 23:21 | 28.38456 | -80.97886 | 2352 ft | 112 kts | 317° |
| 2026-05-04 23:21 | 28.38931 | -80.98495 | 2262 ft | 117 kts | 318° |
| 2026-05-04 23:22 | 28.39373 | -80.99068 | 2158 ft | 116 kts | 317° |
| 2026-05-04 23:22 | 28.39837 | -80.99643 | 2048 ft | 114 kts | 326° |
| 2026-05-04 23:22 | 28.40447 | -81.00064 | 1943 ft | 110 kts | 337° |
| 2026-05-04 23:22 | 28.41080 | -81.00468 | 1847 ft | 109 kts | 338° |
| 2026-05-04 23:23 | 28.41706 | -81.00862 | 1752 ft | 109 kts | 338° |
| 2026-05-04 23:23 | 28.42315 | -81.01251 | 1660 ft | 109 kts | 338° |
| 2026-05-04 23:23 | 28.42938 | -81.01636 | 1554 ft | 116 kts | 338° |
| 2026-05-04 23:23 | 28.43601 | -81.02032 | 1463 ft | 121 kts | 337° |
| 2026-05-04 23:24 | 28.44287 | -81.02432 | 1470 ft | 118 kts | 338° |
| 2026-05-04 23:24 | 28.44985 | -81.02844 | 1471 ft | 116 kts | 338° |
| 2026-05-04 23:24 | 28.45666 | -81.03247 | 1472 ft | 116 kts | 338° |